sensor_id;sensor_type;location;lat;lon;timestamp;temperature;humidity
5842;DHT22;2947;52.276;9.946;2023-10-31T00:01:49;12.50;99.90
5842;DHT22;2947;52.276;9.946;2023-10-31T00:04:15;13.30;99.90
5842;DHT22;2947;52.276;9.946;2023-10-31T00:06:41;12.40;99.90
5842;DHT22;2947;52.276;9.946;2023-10-31T00:09:07;12.40;99.90
5842;DHT22;2947;52.276;9.946;2023-10-31T00:11:32;12.40;99.90
5842;DHT22;2947;52.276;9.946;2023-10-31T00:13:58;12.40;99.90
5842;DHT22;2947;52.276;9.946;2023-10-31T00:16:24;12.50;99.90
5842;DHT22;2947;52.276;9.946;2023-10-31T00:18:49;12.40;99.90
5842;DHT22;2947;52.276;9.946;2023-10-31T00:21:15;12.40;99.90
5842;DHT22;2947;52.276;9.946;2023-10-31T00:23:45;12.50;99.90
5842;DHT22;2947;52.276;9.946;2023-10-31T00:26:11;12.40;99.90
5842;DHT22;2947;52.276;9.946;2023-10-31T00:28:37;12.40;99.90
5842;DHT22;2947;52.276;9.946;2023-10-31T00:31:03;12.40;99.90
5842;DHT22;2947;52.276;9.946;2023-10-31T00:33:30;12.40;99.90
5842;DHT22;2947;52.276;9.946;2023-10-31T00:35:57;12.40;99.90
5842;DHT22;2947;52.276;9.946;2023-10-31T00:38:22;12.40;99.90
5842;DHT22;2947;52.276;9.946;2023-10-31T00:40:48;12.40;99.90
5842;DHT22;2947;52.276;9.946;2023-10-31T00:43:14;12.40;99.90
5842;DHT22;2947;52.276;9.946;2023-10-31T00:45:39;12.50;99.90
5842;DHT22;2947;52.276;9.946;2023-10-31T00:48:05;12.50;99.90
5842;DHT22;2947;52.276;9.946;2023-10-31T00:50:31;13.50;99.90
5842;DHT22;2947;52.276;9.946;2023-10-31T00:52:56;12.50;99.90
5842;DHT22;2947;52.276;9.946;2023-10-31T00:55:22;12.50;99.90
5842;DHT22;2947;52.276;9.946;2023-10-31T00:57:48;12.60;99.90
5842;DHT22;2947;52.276;9.946;2023-10-31T01:00:14;12.50;99.90
5842;DHT22;2947;52.276;9.946;2023-10-31T01:02:40;12.60;99.90
5842;DHT22;2947;52.276;9.946;2023-10-31T01:05:05;12.50;99.90
5842;DHT22;2947;52.276;9.946;2023-10-31T01:07:31;12.60;99.90
5842;DHT22;2947;52.276;9.946;2023-10-31T01:09:57;12.60;99.90
5842;DHT22;2947;52.276;9.946;2023-10-31T01:12:23;12.60;99.90
5842;DHT22;2947;52.276;9.946;2023-10-31T01:14:48;12.60;99.90
5842;DHT22;2947;52.276;9.946;2023-10-31T01:17:14;12.60;99.90
5842;DHT22;2947;52.276;9.946;2023-10-31T01:19:40;12.60;99.90
5842;DHT22;2947;52.276;9.946;2023-10-31T01:22:05;12.70;99.90
5842;DHT22;2947;52.276;9.946;2023-10-31T01:24:32;12.70;99.90
5842;DHT22;2947;52.276;9.946;2023-10-31T01:26:58;15.00;99.90
5842;DHT22;2947;52.276;9.946;2023-10-31T01:29:23;12.70;99.90
5842;DHT22;2947;52.276;9.946;2023-10-31T01:31:49;12.70;99.90
5842;DHT22;2947;52.276;9.946;2023-10-31T01:34:16;12.70;99.90
5842;DHT22;2947;52.276;9.946;2023-10-31T01:36:42;12.70;99.90
5842;DHT22;2947;52.276;9.946;2023-10-31T01:39:07;12.70;99.90
5842;DHT22;2947;52.276;9.946;2023-10-31T01:41:33;10.50;99.90
5842;DHT22;2947;52.276;9.946;2023-10-31T01:43:59;12.60;99.90
5842;DHT22;2947;52.276;9.946;2023-10-31T01:46:24;12.70;99.90
5842;DHT22;2947;52.276;9.946;2023-10-31T01:48:50;12.70;99.90
5842;DHT22;2947;52.276;9.946;2023-10-31T01:51:16;12.60;99.90
5842;DHT22;2947;52.276;9.946;2023-10-31T01:53:41;12.60;99.90
5842;DHT22;2947;52.276;9.946;2023-10-31T01:56:07;12.60;99.90
5842;DHT22;2947;52.276;9.946;2023-10-31T01:58:37;12.60;99.90
5842;DHT22;2947;52.276;9.946;2023-10-31T02:01:04;12.60;99.90
5842;DHT22;2947;52.276;9.946;2023-10-31T02:03:31;12.60;99.90
5842;DHT22;2947;52.276;9.946;2023-10-31T02:05:58;12.60;99.90
5842;DHT22;2947;52.276;9.946;2023-10-31T02:08:25;12.60;99.90
5842;DHT22;2947;52.276;9.946;2023-10-31T02:10:51;12.60;99.90
5842;DHT22;2947;52.276;9.946;2023-10-31T02:13:17;12.60;99.90
5842;DHT22;2947;52.276;9.946;2023-10-31T02:15:44;12.60;99.90
5842;DHT22;2947;52.276;9.946;2023-10-31T02:18:10;12.60;99.90
5842;DHT22;2947;52.276;9.946;2023-10-31T02:20:37;12.60;99.90
5842;DHT22;2947;52.276;9.946;2023-10-31T02:23:03;13.10;99.90
5842;DHT22;2947;52.276;9.946;2023-10-31T02:25:29;12.60;99.90
5842;DHT22;2947;52.276;9.946;2023-10-31T02:27:55;13.30;99.90
5842;DHT22;2947;52.276;9.946;2023-10-31T02:30:21;14.70;99.90
5842;DHT22;2947;52.276;9.946;2023-10-31T02:32:46;12.60;99.90
5842;DHT22;2947;52.276;9.946;2023-10-31T02:35:13;12.60;99.90
5842;DHT22;2947;52.276;9.946;2023-10-31T02:37:40;12.70;99.90
5842;DHT22;2947;52.276;9.946;2023-10-31T02:40:06;12.70;99.90
5842;DHT22;2947;52.276;9.946;2023-10-31T02:42:33;12.60;99.90
5842;DHT22;2947;52.276;9.946;2023-10-31T02:44:59;12.60;99.90
5842;DHT22;2947;52.276;9.946;2023-10-31T02:47:24;12.60;99.90
5842;DHT22;2947;52.276;9.946;2023-10-31T02:49:50;12.70;99.90
5842;DHT22;2947;52.276;9.946;2023-10-31T02:52:15;12.70;99.90
5842;DHT22;2947;52.276;9.946;2023-10-31T02:54:41;12.70;99.90
5842;DHT22;2947;52.276;9.946;2023-10-31T02:57:07;12.70;99.90
5842;DHT22;2947;52.276;9.946;2023-10-31T02:59:33;10.50;99.90
5842;DHT22;2947;52.276;9.946;2023-10-31T03:01:59;12.70;99.90
5842;DHT22;2947;52.276;9.946;2023-10-31T03:04:25;12.80;99.90
5842;DHT22;2947;52.276;9.946;2023-10-31T03:06:50;12.80;99.90
5842;DHT22;2947;52.276;9.946;2023-10-31T03:09:16;12.80;99.90
5842;DHT22;2947;52.276;9.946;2023-10-31T03:11:42;12.80;99.90
5842;DHT22;2947;52.276;9.946;2023-10-31T03:14:07;12.90;99.90
5842;DHT22;2947;52.276;9.946;2023-10-31T03:16:33;12.80;99.90
5842;DHT22;2947;52.276;9.946;2023-10-31T03:18:59;12.90;99.90
5842;DHT22;2947;52.276;9.946;2023-10-31T03:21:25;12.90;99.90
5842;DHT22;2947;52.276;9.946;2023-10-31T03:23:51;12.90;99.90
5842;DHT22;2947;52.276;9.946;2023-10-31T03:26:19;12.90;99.90
5842;DHT22;2947;52.276;9.946;2023-10-31T03:28:45;12.90;99.90
5842;DHT22;2947;52.276;9.946;2023-10-31T03:31:14;12.90;99.90
5842;DHT22;2947;52.276;9.946;2023-10-31T03:33:41;12.80;99.90
5842;DHT22;2947;52.276;9.946;2023-10-31T03:36:07;12.70;99.90
5842;DHT22;2947;52.276;9.946;2023-10-31T03:38:34;12.60;99.90
5842;DHT22;2947;52.276;9.946;2023-10-31T03:41:01;12.60;99.90
5842;DHT22;2947;52.276;9.946;2023-10-31T03:43:27;12.50;99.90
5842;DHT22;2947;52.276;9.946;2023-10-31T03:45:54;12.40;99.90
5842;DHT22;2947;52.276;9.946;2023-10-31T03:48:20;11.90;99.90
5842;DHT22;2947;52.276;9.946;2023-10-31T03:50:46;12.30;99.90
5842;DHT22;2947;52.276;9.946;2023-10-31T03:53:12;12.20;99.90
5842;DHT22;2947;52.276;9.946;2023-10-31T03:55:38;12.20;99.90
5842;DHT22;2947;52.276;9.946;2023-10-31T03:58:04;12.10;99.90
5842;DHT22;2947;52.276;9.946;2023-10-31T04:00:31;12.20;99.90
5842;DHT22;2947;52.276;9.946;2023-10-31T04:02:56;12.10;99.90
5842;DHT22;2947;52.276;9.946;2023-10-31T04:05:22;12.10;99.90
5842;DHT22;2947;52.276;9.946;2023-10-31T04:07:48;12.10;99.90
5842;DHT22;2947;52.276;9.946;2023-10-31T04:10:15;12.10;99.90
5842;DHT22;2947;52.276;9.946;2023-10-31T04:12:41;12.00;99.90
5842;DHT22;2947;52.276;9.946;2023-10-31T04:15:08;13.20;99.90
5842;DHT22;2947;52.276;9.946;2023-10-31T04:17:34;11.90;99.90
5842;DHT22;2947;52.276;9.946;2023-10-31T04:20:00;11.90;99.90
5842;DHT22;2947;52.276;9.946;2023-10-31T04:22:26;11.90;99.90
5842;DHT22;2947;52.276;9.946;2023-10-31T04:24:52;11.90;99.90
5842;DHT22;2947;52.276;9.946;2023-10-31T04:27:18;11.80;99.90
5842;DHT22;2947;52.276;9.946;2023-10-31T04:29:44;11.80;99.90
5842;DHT22;2947;52.276;9.946;2023-10-31T04:32:10;11.70;99.90
5842;DHT22;2947;52.276;9.946;2023-10-31T04:34:36;11.70;99.90
5842;DHT22;2947;52.276;9.946;2023-10-31T04:37:01;11.70;99.90
5842;DHT22;2947;52.276;9.946;2023-10-31T04:39:27;11.70;99.90
5842;DHT22;2947;52.276;9.946;2023-10-31T04:41:53;11.70;99.90
5842;DHT22;2947;52.276;9.946;2023-10-31T04:44:19;11.60;99.90
5842;DHT22;2947;52.276;9.946;2023-10-31T04:46:44;13.00;99.90
5842;DHT22;2947;52.276;9.946;2023-10-31T04:49:10;11.70;99.90
5842;DHT22;2947;52.276;9.946;2023-10-31T04:51:37;11.70;99.90
5842;DHT22;2947;52.276;9.946;2023-10-31T04:54:03;11.60;99.90
5842;DHT22;2947;52.276;9.946;2023-10-31T04:56:30;11.60;99.90
5842;DHT22;2947;52.276;9.946;2023-10-31T04:58:56;11.60;99.90
5842;DHT22;2947;52.276;9.946;2023-10-31T05:01:21;11.60;99.90
5842;DHT22;2947;52.276;9.946;2023-10-31T05:03:47;11.60;99.90
5842;DHT22;2947;52.276;9.946;2023-10-31T05:06:13;11.60;99.90
5842;DHT22;2947;52.276;9.946;2023-10-31T05:08:38;11.60;99.90
5842;DHT22;2947;52.276;9.946;2023-10-31T05:11:04;11.60;99.90
5842;DHT22;2947;52.276;9.946;2023-10-31T05:13:30;11.50;99.90
5842;DHT22;2947;52.276;9.946;2023-10-31T05:15:56;11.50;99.90
5842;DHT22;2947;52.276;9.946;2023-10-31T05:18:21;11.50;99.90
5842;DHT22;2947;52.276;9.946;2023-10-31T05:20:47;11.60;99.90
5842;DHT22;2947;52.276;9.946;2023-10-31T05:23:13;11.50;99.90
5842;DHT22;2947;52.276;9.946;2023-10-31T05:25:39;11.50;99.90
5842;DHT22;2947;52.276;9.946;2023-10-31T05:28:05;11.40;99.90
5842;DHT22;2947;52.276;9.946;2023-10-31T05:30:32;11.50;99.90
5842;DHT22;2947;52.276;9.946;2023-10-31T05:32:58;11.40;99.90
5842;DHT22;2947;52.276;9.946;2023-10-31T05:35:23;11.50;99.90
5842;DHT22;2947;52.276;9.946;2023-10-31T05:37:50;11.40;99.90
5842;DHT22;2947;52.276;9.946;2023-10-31T05:40:16;11.40;99.90
5842;DHT22;2947;52.276;9.946;2023-10-31T05:42:42;11.40;99.90
5842;DHT22;2947;52.276;9.946;2023-10-31T05:45:08;11.30;99.90
5842;DHT22;2947;52.276;9.946;2023-10-31T05:47:34;11.30;99.90
5842;DHT22;2947;52.276;9.946;2023-10-31T05:50:00;11.30;99.90
5842;DHT22;2947;52.276;9.946;2023-10-31T05:52:29;11.30;99.90
5842;DHT22;2947;52.276;9.946;2023-10-31T05:54:55;11.30;99.90
5842;DHT22;2947;52.276;9.946;2023-10-31T05:57:21;11.30;99.90
5842;DHT22;2947;52.276;9.946;2023-10-31T05:59:47;11.30;99.90
5842;DHT22;2947;52.276;9.946;2023-10-31T06:02:14;11.30;99.90
5842;DHT22;2947;52.276;9.946;2023-10-31T06:04:40;13.30;99.90
5842;DHT22;2947;52.276;9.946;2023-10-31T06:07:06;11.20;99.90
5842;DHT22;2947;52.276;9.946;2023-10-31T06:09:32;11.20;99.90
5842;DHT22;2947;52.276;9.946;2023-10-31T06:12:01;11.20;99.90
5842;DHT22;2947;52.276;9.946;2023-10-31T06:14:26;11.20;99.90
5842;DHT22;2947;52.276;9.946;2023-10-31T06:16:52;11.10;99.90
5842;DHT22;2947;52.276;9.946;2023-10-31T06:19:19;11.10;99.90
5842;DHT22;2947;52.276;9.946;2023-10-31T06:21:45;11.20;99.90
5842;DHT22;2947;52.276;9.946;2023-10-31T06:24:10;11.10;99.90
5842;DHT22;2947;52.276;9.946;2023-10-31T06:26:36;11.10;99.90
5842;DHT22;2947;52.276;9.946;2023-10-31T06:29:02;11.60;99.90
5842;DHT22;2947;52.276;9.946;2023-10-31T06:31:28;11.10;99.90
5842;DHT22;2947;52.276;9.946;2023-10-31T06:33:54;11.10;99.90
5842;DHT22;2947;52.276;9.946;2023-10-31T06:36:20;11.00;99.90
5842;DHT22;2947;52.276;9.946;2023-10-31T06:38:45;11.00;99.90
5842;DHT22;2947;52.276;9.946;2023-10-31T06:41:11;12.30;99.90
5842;DHT22;2947;52.276;9.946;2023-10-31T06:43:37;10.90;99.90
5842;DHT22;2947;52.276;9.946;2023-10-31T06:46:03;12.50;99.90
5842;DHT22;2947;52.276;9.946;2023-10-31T06:48:30;10.90;99.90
5842;DHT22;2947;52.276;9.946;2023-10-31T06:50:56;10.90;99.90
5842;DHT22;2947;52.276;9.946;2023-10-31T06:53:21;10.90;99.90
5842;DHT22;2947;52.276;9.946;2023-10-31T06:55:47;10.90;99.90
5842;DHT22;2947;52.276;9.946;2023-10-31T06:58:14;11.00;99.90
5842;DHT22;2947;52.276;9.946;2023-10-31T07:00:39;10.90;99.90
5842;DHT22;2947;52.276;9.946;2023-10-31T07:03:05;10.90;99.90
5842;DHT22;2947;52.276;9.946;2023-10-31T07:05:35;10.90;99.90
5842;DHT22;2947;52.276;9.946;2023-10-31T07:08:01;10.90;99.90
5842;DHT22;2947;52.276;9.946;2023-10-31T07:10:28;11.90;99.90
5842;DHT22;2947;52.276;9.946;2023-10-31T07:12:55;11.70;99.90
5842;DHT22;2947;52.276;9.946;2023-10-31T07:15:20;10.80;99.90
5842;DHT22;2947;52.276;9.946;2023-10-31T07:17:46;10.90;99.90
5842;DHT22;2947;52.276;9.946;2023-10-31T07:20:12;10.90;99.90
5842;DHT22;2947;52.276;9.946;2023-10-31T07:22:39;10.90;99.90
5842;DHT22;2947;52.276;9.946;2023-10-31T07:25:06;10.90;99.90
5842;DHT22;2947;52.276;9.946;2023-10-31T07:27:32;10.80;99.90
5842;DHT22;2947;52.276;9.946;2023-10-31T07:29:58;10.90;99.90
5842;DHT22;2947;52.276;9.946;2023-10-31T07:32:25;10.90;99.90
5842;DHT22;2947;52.276;9.946;2023-10-31T07:34:51;10.90;99.90
5842;DHT22;2947;52.276;9.946;2023-10-31T07:37:17;10.90;99.90
5842;DHT22;2947;52.276;9.946;2023-10-31T07:39:43;10.90;99.90
5842;DHT22;2947;52.276;9.946;2023-10-31T07:42:08;10.90;99.90
5842;DHT22;2947;52.276;9.946;2023-10-31T07:44:34;10.90;99.90
5842;DHT22;2947;52.276;9.946;2023-10-31T07:47:00;10.90;99.90
5842;DHT22;2947;52.276;9.946;2023-10-31T07:49:26;10.90;99.90
5842;DHT22;2947;52.276;9.946;2023-10-31T07:51:52;10.90;99.90
5842;DHT22;2947;52.276;9.946;2023-10-31T07:54:17;11.00;99.90
5842;DHT22;2947;52.276;9.946;2023-10-31T07:56:44;10.90;99.90
5842;DHT22;2947;52.276;9.946;2023-10-31T07:59:09;11.00;99.90
5842;DHT22;2947;52.276;9.946;2023-10-31T08:01:36;11.00;99.90
5842;DHT22;2947;52.276;9.946;2023-10-31T08:04:02;11.00;99.90
5842;DHT22;2947;52.276;9.946;2023-10-31T08:06:27;10.90;99.90
5842;DHT22;2947;52.276;9.946;2023-10-31T08:08:53;10.90;99.90
5842;DHT22;2947;52.276;9.946;2023-10-31T08:11:19;10.90;99.90
5842;DHT22;2947;52.276;9.946;2023-10-31T08:13:45;10.80;99.90
5842;DHT22;2947;52.276;9.946;2023-10-31T08:16:19;10.80;99.90
5842;DHT22;2947;52.276;9.946;2023-10-31T08:18:46;10.70;99.90
5842;DHT22;2947;52.276;9.946;2023-10-31T08:21:12;10.70;99.90
5842;DHT22;2947;52.276;9.946;2023-10-31T08:23:38;10.60;99.90
5842;DHT22;2947;52.276;9.946;2023-10-31T08:26:04;10.70;99.90
5842;DHT22;2947;52.276;9.946;2023-10-31T08:28:30;10.70;99.90
5842;DHT22;2947;52.276;9.946;2023-10-31T08:30:56;10.60;99.90
5842;DHT22;2947;52.276;9.946;2023-10-31T08:33:22;10.60;99.90
5842;DHT22;2947;52.276;9.946;2023-10-31T08:35:48;12.20;99.90
5842;DHT22;2947;52.276;9.946;2023-10-31T08:38:15;10.60;99.90
5842;DHT22;2947;52.276;9.946;2023-10-31T08:40:41;10.60;99.90
5842;DHT22;2947;52.276;9.946;2023-10-31T08:43:07;10.60;99.90
5842;DHT22;2947;52.276;9.946;2023-10-31T08:45:33;10.70;99.90
5842;DHT22;2947;52.276;9.946;2023-10-31T08:47:59;10.70;99.90
5842;DHT22;2947;52.276;9.946;2023-10-31T08:50:25;10.70;99.90
5842;DHT22;2947;52.276;9.946;2023-10-31T08:52:51;10.80;99.90
5842;DHT22;2947;52.276;9.946;2023-10-31T08:55:17;10.90;99.90
5842;DHT22;2947;52.276;9.946;2023-10-31T08:57:43;10.90;99.90
5842;DHT22;2947;52.276;9.946;2023-10-31T09:00:09;11.00;99.90
5842;DHT22;2947;52.276;9.946;2023-10-31T09:02:35;11.00;99.90
5842;DHT22;2947;52.276;9.946;2023-10-31T09:05:01;11.10;99.90
5842;DHT22;2947;52.276;9.946;2023-10-31T09:07:26;11.20;99.90
5842;DHT22;2947;52.276;9.946;2023-10-31T09:09:52;11.20;99.90
5842;DHT22;2947;52.276;9.946;2023-10-31T09:12:18;11.20;99.90
5842;DHT22;2947;52.276;9.946;2023-10-31T09:14:45;11.30;99.90
5842;DHT22;2947;52.276;9.946;2023-10-31T09:17:10;11.30;99.90
5842;DHT22;2947;52.276;9.946;2023-10-31T09:19:36;11.40;99.90
5842;DHT22;2947;52.276;9.946;2023-10-31T09:22:02;11.30;99.90
5842;DHT22;2947;52.276;9.946;2023-10-31T09:24:28;11.40;99.90
5842;DHT22;2947;52.276;9.946;2023-10-31T09:26:53;11.40;99.90
5842;DHT22;2947;52.276;9.946;2023-10-31T09:29:19;11.40;99.90
5842;DHT22;2947;52.276;9.946;2023-10-31T09:31:45;11.40;99.90
5842;DHT22;2947;52.276;9.946;2023-10-31T09:34:10;11.40;99.90
5842;DHT22;2947;52.276;9.946;2023-10-31T09:36:36;11.50;99.90
5842;DHT22;2947;52.276;9.946;2023-10-31T09:39:02;11.60;99.90
5842;DHT22;2947;52.276;9.946;2023-10-31T09:41:28;11.60;99.90
5842;DHT22;2947;52.276;9.946;2023-10-31T09:43:55;11.60;99.90
5842;DHT22;2947;52.276;9.946;2023-10-31T09:46:22;11.70;99.90
5842;DHT22;2947;52.276;9.946;2023-10-31T09:48:49;11.60;99.90
5842;DHT22;2947;52.276;9.946;2023-10-31T09:51:15;11.70;99.90
5842;DHT22;2947;52.276;9.946;2023-10-31T09:53:43;11.70;99.90
5842;DHT22;2947;52.276;9.946;2023-10-31T09:56:10;12.50;99.90
5842;DHT22;2947;52.276;9.946;2023-10-31T09:58:36;11.80;99.90
5842;DHT22;2947;52.276;9.946;2023-10-31T10:01:02;11.80;99.90
5842;DHT22;2947;52.276;9.946;2023-10-31T10:03:29;11.80;99.90
5842;DHT22;2947;52.276;9.946;2023-10-31T10:05:55;11.80;99.90
5842;DHT22;2947;52.276;9.946;2023-10-31T10:08:21;11.80;99.90
5842;DHT22;2947;52.276;9.946;2023-10-31T10:10:49;11.90;99.90
5842;DHT22;2947;52.276;9.946;2023-10-31T10:13:21;11.90;99.90
5842;DHT22;2947;52.276;9.946;2023-10-31T10:15:48;11.90;99.90
5842;DHT22;2947;52.276;9.946;2023-10-31T10:18:25;11.90;99.90
5842;DHT22;2947;52.276;9.946;2023-10-31T10:20:58;11.90;99.90
5842;DHT22;2947;52.276;9.946;2023-10-31T10:23:26;12.30;99.90
5842;DHT22;2947;52.276;9.946;2023-10-31T10:25:53;11.90;99.90
5842;DHT22;2947;52.276;9.946;2023-10-31T10:28:19;11.80;99.90
5842;DHT22;2947;52.276;9.946;2023-10-31T10:30:48;11.80;99.90
5842;DHT22;2947;52.276;9.946;2023-10-31T10:33:15;11.80;99.90
5842;DHT22;2947;52.276;9.946;2023-10-31T10:35:41;13.50;99.90
5842;DHT22;2947;52.276;9.946;2023-10-31T10:38:16;11.70;99.90
5842;DHT22;2947;52.276;9.946;2023-10-31T10:40:47;11.70;99.90
5842;DHT22;2947;52.276;9.946;2023-10-31T10:43:26;12.50;99.90
5842;DHT22;2947;52.276;9.946;2023-10-31T10:45:57;11.80;99.90
5842;DHT22;2947;52.276;9.946;2023-10-31T10:48:25;11.90;99.90
5842;DHT22;2947;52.276;9.946;2023-10-31T10:50:59;12.00;99.90
5842;DHT22;2947;52.276;9.946;2023-10-31T10:53:44;12.10;99.90
5842;DHT22;2947;52.276;9.946;2023-10-31T10:56:34;12.20;99.90
5842;DHT22;2947;52.276;9.946;2023-10-31T10:59:08;12.20;99.90
5842;DHT22;2947;52.276;9.946;2023-10-31T11:01:46;12.30;99.90
5842;DHT22;2947;52.276;9.946;2023-10-31T11:04:14;12.40;99.90
5842;DHT22;2947;52.276;9.946;2023-10-31T11:06:40;12.40;99.90
5842;DHT22;2947;52.276;9.946;2023-10-31T11:09:07;12.40;99.90
5842;DHT22;2947;52.276;9.946;2023-10-31T11:11:37;12.40;99.90
5842;DHT22;2947;52.276;9.946;2023-10-31T11:14:03;12.40;99.90
5842;DHT22;2947;52.276;9.946;2023-10-31T11:16:37;12.50;99.90
5842;DHT22;2947;52.276;9.946;2023-10-31T11:19:07;12.50;99.90
5842;DHT22;2947;52.276;9.946;2023-10-31T11:21:34;12.40;99.90
5842;DHT22;2947;52.276;9.946;2023-10-31T11:24:01;12.30;99.90
5842;DHT22;2947;52.276;9.946;2023-10-31T11:26:27;12.30;99.90
5842;DHT22;2947;52.276;9.946;2023-10-31T11:29:05;12.30;99.90
5842;DHT22;2947;52.276;9.946;2023-10-31T11:31:32;12.30;99.90
5842;DHT22;2947;52.276;9.946;2023-10-31T11:34:01;12.30;99.90
5842;DHT22;2947;52.276;9.946;2023-10-31T11:36:30;12.40;99.90
5842;DHT22;2947;52.276;9.946;2023-10-31T11:39:21;12.30;99.90
5842;DHT22;2947;52.276;9.946;2023-10-31T11:41:55;12.30;99.90
5842;DHT22;2947;52.276;9.946;2023-10-31T11:44:27;12.30;99.90
5842;DHT22;2947;52.276;9.946;2023-10-31T11:46:53;12.20;99.90
5842;DHT22;2947;52.276;9.946;2023-10-31T11:49:45;12.40;99.90
5842;DHT22;2947;52.276;9.946;2023-10-31T11:52:18;12.20;99.90
5842;DHT22;2947;52.276;9.946;2023-10-31T11:54:44;12.20;99.90
5842;DHT22;2947;52.276;9.946;2023-10-31T11:57:10;12.20;99.90
5842;DHT22;2947;52.276;9.946;2023-10-31T11:59:39;12.20;99.90
5842;DHT22;2947;52.276;9.946;2023-10-31T12:02:15;12.20;99.90
5842;DHT22;2947;52.276;9.946;2023-10-31T12:04:42;12.10;99.90
5842;DHT22;2947;52.276;9.946;2023-10-31T12:07:08;12.10;99.90
5842;DHT22;2947;52.276;9.946;2023-10-31T12:09:46;12.20;99.90
5842;DHT22;2947;52.276;9.946;2023-10-31T12:12:12;12.20;99.90
5842;DHT22;2947;52.276;9.946;2023-10-31T12:14:38;12.20;99.90
5842;DHT22;2947;52.276;9.946;2023-10-31T12:17:05;12.20;99.90
5842;DHT22;2947;52.276;9.946;2023-10-31T12:19:32;12.20;99.90
5842;DHT22;2947;52.276;9.946;2023-10-31T12:21:58;12.20;99.90
5842;DHT22;2947;52.276;9.946;2023-10-31T12:24:24;12.20;99.90
5842;DHT22;2947;52.276;9.946;2023-10-31T12:26:50;12.30;99.90
5842;DHT22;2947;52.276;9.946;2023-10-31T12:29:18;12.20;99.90
5842;DHT22;2947;52.276;9.946;2023-10-31T12:31:48;13.10;99.90
5842;DHT22;2947;52.276;9.946;2023-10-31T12:34:19;12.30;99.90
5842;DHT22;2947;52.276;9.946;2023-10-31T12:36:51;12.40;99.90
5842;DHT22;2947;52.276;9.946;2023-10-31T12:39:22;12.40;99.90
5842;DHT22;2947;52.276;9.946;2023-10-31T12:41:51;12.40;99.90
5842;DHT22;2947;52.276;9.946;2023-10-31T12:44:22;12.40;99.90
5842;DHT22;2947;52.276;9.946;2023-10-31T12:46:50;13.30;99.90
5842;DHT22;2947;52.276;9.946;2023-10-31T12:49:18;12.40;99.90
5842;DHT22;2947;52.276;9.946;2023-10-31T12:54:33;12.50;99.90
5842;DHT22;2947;52.276;9.946;2023-10-31T12:57:04;12.40;99.90
5842;DHT22;2947;52.276;9.946;2023-10-31T12:59:32;12.40;99.90
5842;DHT22;2947;52.276;9.946;2023-10-31T13:01:59;12.40;99.90
5842;DHT22;2947;52.276;9.946;2023-10-31T13:04:29;12.40;99.90
5842;DHT22;2947;52.276;9.946;2023-10-31T13:07:01;12.40;99.90
5842;DHT22;2947;52.276;9.946;2023-10-31T13:09:32;12.50;99.90
5842;DHT22;2947;52.276;9.946;2023-10-31T13:12:05;12.50;99.90
5842;DHT22;2947;52.276;9.946;2023-10-31T13:14:32;12.50;99.90
5842;DHT22;2947;52.276;9.946;2023-10-31T13:17:00;12.50;99.90
5842;DHT22;2947;52.276;9.946;2023-10-31T13:19:26;12.50;99.90
5842;DHT22;2947;52.276;9.946;2023-10-31T13:21:52;12.50;99.90
5842;DHT22;2947;52.276;9.946;2023-10-31T13:24:17;12.50;99.90
5842;DHT22;2947;52.276;9.946;2023-10-31T13:26:44;12.60;99.90
5842;DHT22;2947;52.276;9.946;2023-10-31T13:29:11;12.60;99.90
5842;DHT22;2947;52.276;9.946;2023-10-31T13:31:39;11.70;99.90
5842;DHT22;2947;52.276;9.946;2023-10-31T13:34:05;12.60;99.90
5842;DHT22;2947;52.276;9.946;2023-10-31T13:36:31;12.60;99.90
5842;DHT22;2947;52.276;9.946;2023-10-31T13:38:57;12.60;99.90
5842;DHT22;2947;52.276;9.946;2023-10-31T13:41:23;12.70;99.90
5842;DHT22;2947;52.276;9.946;2023-10-31T13:43:49;12.60;99.90
5842;DHT22;2947;52.276;9.946;2023-10-31T13:46:14;12.60;99.90
5842;DHT22;2947;52.276;9.946;2023-10-31T13:48:40;12.70;99.90
5842;DHT22;2947;52.276;9.946;2023-10-31T13:51:07;12.70;99.90
5842;DHT22;2947;52.276;9.946;2023-10-31T13:53:32;12.70;99.90
5842;DHT22;2947;52.276;9.946;2023-10-31T13:55:58;12.70;99.90
5842;DHT22;2947;52.276;9.946;2023-10-31T13:58:24;12.70;99.90
5842;DHT22;2947;52.276;9.946;2023-10-31T14:00:50;12.70;99.90
5842;DHT22;2947;52.276;9.946;2023-10-31T14:03:15;12.70;99.90
5842;DHT22;2947;52.276;9.946;2023-10-31T14:05:41;12.70;99.90
5842;DHT22;2947;52.276;9.946;2023-10-31T14:08:07;12.70;99.90
5842;DHT22;2947;52.276;9.946;2023-10-31T14:10:34;12.70;99.90
5842;DHT22;2947;52.276;9.946;2023-10-31T14:12:59;12.70;99.90
5842;DHT22;2947;52.276;9.946;2023-10-31T14:15:25;14.00;99.90
5842;DHT22;2947;52.276;9.946;2023-10-31T14:17:51;12.70;99.90
5842;DHT22;2947;52.276;9.946;2023-10-31T14:20:17;12.70;99.90
5842;DHT22;2947;52.276;9.946;2023-10-31T14:22:49;12.70;99.90
5842;DHT22;2947;52.276;9.946;2023-10-31T14:25:15;12.60;99.90
5842;DHT22;2947;52.276;9.946;2023-10-31T14:27:42;13.10;99.90
5842;DHT22;2947;52.276;9.946;2023-10-31T14:30:10;12.60;99.90
5842;DHT22;2947;52.276;9.946;2023-10-31T14:32:36;12.60;99.90
5842;DHT22;2947;52.276;9.946;2023-10-31T14:35:02;12.60;99.90
5842;DHT22;2947;52.276;9.946;2023-10-31T14:37:28;12.60;99.90
5842;DHT22;2947;52.276;9.946;2023-10-31T14:39:54;12.60;99.90
5842;DHT22;2947;52.276;9.946;2023-10-31T14:42:20;12.60;99.90
5842;DHT22;2947;52.276;9.946;2023-10-31T14:44:46;12.60;99.90
5842;DHT22;2947;52.276;9.946;2023-10-31T14:47:12;12.60;99.90
5842;DHT22;2947;52.276;9.946;2023-10-31T14:49:38;12.50;99.90
5842;DHT22;2947;52.276;9.946;2023-10-31T14:52:04;12.50;99.90
5842;DHT22;2947;52.276;9.946;2023-10-31T14:54:34;12.50;99.90
5842;DHT22;2947;52.276;9.946;2023-10-31T14:57:01;12.60;99.90
5842;DHT22;2947;52.276;9.946;2023-10-31T14:59:27;12.60;99.90
5842;DHT22;2947;52.276;9.946;2023-10-31T15:01:53;12.50;99.90
5842;DHT22;2947;52.276;9.946;2023-10-31T15:04:18;12.60;99.90
5842;DHT22;2947;52.276;9.946;2023-10-31T15:06:44;12.60;99.90
5842;DHT22;2947;52.276;9.946;2023-10-31T15:09:10;13.50;99.90
5842;DHT22;2947;52.276;9.946;2023-10-31T15:11:36;13.10;99.90
5842;DHT22;2947;52.276;9.946;2023-10-31T15:14:02;12.60;99.90
5842;DHT22;2947;52.276;9.946;2023-10-31T15:16:28;14.00;99.90
5842;DHT22;2947;52.276;9.946;2023-10-31T15:18:54;12.10;99.90
5842;DHT22;2947;52.276;9.946;2023-10-31T15:21:19;12.50;99.90
5842;DHT22;2947;52.276;9.946;2023-10-31T15:23:45;12.50;99.90
5842;DHT22;2947;52.276;9.946;2023-10-31T15:26:11;13.10;99.90
5842;DHT22;2947;52.276;9.946;2023-10-31T15:28:39;12.50;99.90
5842;DHT22;2947;52.276;9.946;2023-10-31T15:31:05;12.50;99.90
5842;DHT22;2947;52.276;9.946;2023-10-31T15:33:31;12.30;99.90
5842;DHT22;2947;52.276;9.946;2023-10-31T15:35:57;12.20;99.90
5842;DHT22;2947;52.276;9.946;2023-10-31T15:38:23;12.00;99.90
5842;DHT22;2947;52.276;9.946;2023-10-31T15:40:49;11.90;99.90
5842;DHT22;2947;52.276;9.946;2023-10-31T15:43:15;11.90;99.90
5842;DHT22;2947;52.276;9.946;2023-10-31T15:45:40;12.40;99.90
5842;DHT22;2947;52.276;9.946;2023-10-31T15:48:07;12.90;99.90
5842;DHT22;2947;52.276;9.946;2023-10-31T15:50:34;11.70;99.90
5842;DHT22;2947;52.276;9.946;2023-10-31T15:52:59;11.70;99.90
5842;DHT22;2947;52.276;9.946;2023-10-31T15:55:25;11.70;99.90
5842;DHT22;2947;52.276;9.946;2023-10-31T15:57:51;11.70;99.90
5842;DHT22;2947;52.276;9.946;2023-10-31T16:00:17;11.70;99.90
5842;DHT22;2947;52.276;9.946;2023-10-31T16:02:43;11.60;99.90